Robinwood, Mississippi
Current Conditions -  °F | °C
As of 4:55 PM on Tuesday 27 Jan 2015 (Local Time) from K1R7 Reporting Station
Clear Clear  
Wind Chill: 66°   Ceiling: Unl
Heat Index: 66°   Visibility: NA
Dew Point: 32°   Wind: 0mph
Humidity: 28%   Direction: NA
Pressure: 30.11"   Gusts: NA
Location:  31.4742°N, 90.119°W
Report Text: K1R7 272255Z AUTO 00000KT CLR 19/00 A3011 RMK AO2
Loading
Personal Weather Stations






























Interactive Weather Map New forecast layout! Learn more

10-Day Weather Forecast

Advertisements
Track Severe Weather on mobile